Latest Weather Observations for Wynyard

IDT60801

Issued at 2:31 pm EST Sunday 26 June 2016 (issued every 30 minutes, with the page automatically refreshed every 10 minutes)

About weather observations | Map of weather stations | Latest weather observations for TAS | Other Formats
Station Details ID: 091107 Name: WYNYARD AIRPORT Lat: -41.00 Lon: 145.73 Height: 12.0 m
Data from the previous 72 hours. | See also: Recent months at Wynyard
Date/Time
EST
Temp
°C
App
Temp
°C
Dew
Point
Rel
Hum
%
Delta-T
°C
Wind Press
QNH
hPa
Press
MSL
hPa
Rain
since 9 am
mm
Dir
 
Spd
km/h
Gust
km/h
Spd
kts
Gust
kts
26/02:30pm 12.3 6.7 5.2 62 3.3 NW 24 35 13 19 1013.6 1013.7 0.0
26/02:00pm 12.6 7.2 6.2 65 3.0 NW 24 33 13 18 1013.9 1014.0 0.0
26/01:30pm 12.5 5.8 5.4 62 3.3 NW 30 39 16 21 1014.2 1014.3 0.0
26/01:00pm 12.9 7.0 5.6 61 3.4 NW 26 35 14 19 1014.6 1014.7 0.0
26/12:30pm 12.2 7.5 6.0 66 2.9 WNW 20 30 11 16 1015.0 1015.1 0.0
26/12:00pm 13.0 7.7 6.6 65 3.1 WNW 24 37 13 20 1015.4 1015.5 0.0
26/11:30am 12.6 8.8 8.9 78 1.9 W 19 26 10 14 1016.1 1016.2 0.0
26/11:00am 11.7 10.4 11.1 96 0.3 WNW 9 15 5 8 1016.7 1016.8 0.0
26/10:30am 10.0 8.8 9.7 98 0.2 WNW 6 9 3 5 1017.2 1017.2 0.0
26/10:00am 7.9 6.1 7.8 99 0.0 WNW 7 11 4 6 1017.3 1017.3 0.0
26/09:30am 6.1 3.9 6.0 99 0.0 W 7 9 4 5 1017.3 1017.3 0.0
26/09:00am 3.6 0.4 3.3 98 0.1 W 9 11 5 6 1017.3 1017.3 0.2
26/08:55am 3.0 -0.3 2.7 98 0.1 W 9 11 5 6 1017.3 1017.3 0.2
26/08:30am 2.9 -0.4 2.6 98 0.1 WNW 9 11 5 6 1017.3 1017.3 0.2
26/08:07am 1.9 -1.2 1.6 98 0.1 WNW 7 9 4 5 1017.2 1017.2 0.2
26/08:00am 2.2 -0.8 1.9 98 0.1 W 7 9 4 5 1017.3 1017.3 0.2
26/07:30am 3.1 -0.9 2.8 98 0.1 WSW 13 13 7 7 1017.2 1017.2 0.2
26/07:00am 2.0 -1.8 1.7 98 0.1 W 11 13 6 7 1017.2 1017.2 0.2
26/06:30am 1.4 -2.1 1.1 98 0.1 W 9 11 5 6 1017.2 1017.2 0.2
26/06:00am 1.9 -1.2 1.6 98 0.1 W 7 9 4 5 1017.1 1017.1 0.2
26/05:30am 1.6 -1.9 1.2 97 0.2 W 9 11 5 6 1017.0 1017.0 0.2
26/05:00am 2.5 -0.3 2.2 98 0.1 WSW 6 7 3 4 1017.1 1017.1 0.2
26/04:50am 1.7 -1.2 1.4 98 0.1 WSW 6 7 3 4 1017.2 1017.2 0.2
26/04:30am 1.9 -1.5 1.6 98 0.1 WSW 9 11 5 6 1017.1 1017.1 0.2
26/04:00am 2.0 -1.0 1.7 98 0.1 WSW 7 9 4 5 1017.2 1017.2 0.2
26/03:30am 1.5 -2.0 1.1 97 0.2 WNW 9 9 5 5 1017.3 1017.3 0.2
26/03:00am 3.2 0.0 2.9 98 0.1 WNW 9 11 5 6 1017.4 1017.4 0.2
26/02:30am 3.4 -0.2 3.0 97 0.2 WNW 11 13 6 7 1017.7 1017.7 0.2
26/02:00am 3.9 0.0 3.6 98 0.1 WNW 13 15 7 8 1017.7 1017.7 0.2
26/01:30am 3.0 -0.7 2.6 97 0.2 WNW 11 11 6 6 1017.7 1017.7 0.2
26/01:00am 4.4 1.0 4.0 97 0.2 WNW 11 13 6 7 1017.8 1017.8 0.2
26/12:53am 4.8 1.5 4.4 97 0.2 WNW 11 13 6 7 1017.9 1017.9 0.2
26/12:30am 6.2 2.8 5.9 98 0.1 NW 13 15 7 8 1018.0 1018.0 0.2
26/12:21am 5.8 2.3 5.5 98 0.1 NW 13 15 7 8 1018.1 1018.1 0.2
26/12:00am 4.1 1.0 3.7 97 0.2 NW 9 11 5 6 1018.1 1018.1 0.2
 
Date/Time
EST
Temp
°C
App
Temp
°C
Dew
Point
Rel
Hum
%
Delta-T
°C
Wind Press
QNH
hPa
Press
MSL
hPa
Rain
since 9 am
mm
Dir
 
Spd
km/h
Gust
km/h
Spd
kts
Gust
kts
25/11:54pm 4.1 1.0 3.7 97 0.2 NW 9 11 5 6 1018.2 1018.2 0.2
25/11:30pm 4.6 1.2 4.2 97 0.2 W 11 13 6 7 1018.3 1018.3 0.2
25/11:00pm 3.7 -0.2 3.3 97 0.2 W 13 15 7 8 1018.3 1018.3 0.2
25/10:30pm 4.2 0.3 3.6 96 0.2 W 13 13 7 7 1018.4 1018.4 0.2
25/10:08pm 5.2 2.0 4.9 98 0.1 WNW 11 13 6 7 1018.6 1018.6 0.2
25/10:00pm 4.9 1.6 4.5 97 0.2 W 11 13 6 7 1018.6 1018.6 0.2
25/09:30pm 3.8 0.7 3.4 97 0.2 WNW 9 11 5 6 1018.6 1018.6 0.2
25/09:00pm 4.0 1.5 3.6 97 0.2 W 6 7 3 4 1018.7 1018.7 0.2
25/08:44pm 2.7 -0.7 2.1 96 0.2 W 9 9 5 5 1018.7 1018.7 0.2
25/08:30pm 3.7 0.9 3.1 96 0.2 WSW 7 11 4 6 1018.8 1018.8 0.2
25/08:00pm 3.8 -0.1 3.2 96 0.2 W 13 15 7 8 1018.9 1018.9 0.2
25/07:30pm 4.2 1.1 3.6 96 0.2 SW 9 13 5 7 1018.8 1018.8 0.2
25/07:12pm 3.8 -0.2 3.1 95 0.3 WSW 13 13 7 7 1018.7 1018.7 0.2
25/07:00pm 4.5 1.1 3.8 95 0.3 W 11 13 6 7 1018.7 1018.7 0.2
25/06:54pm 4.7 1.3 4.0 95 0.3 W 11 13 6 7 1018.7 1018.7 0.2
25/06:40pm 5.1 1.7 4.2 94 0.4 W 11 15 6 8 1018.7 1018.7 0.2
25/06:30pm 5.4 1.7 4.5 94 0.4 WNW 13 15 7 8 1018.6 1018.6 0.2
25/06:22pm 5.2 2.2 4.2 93 0.4 W 9 13 5 7 1018.6 1018.6 0.2
25/06:00pm 6.9 4.8 5.8 93 0.5 WSW 6 7 3 4 1018.6 1018.6 0.2
25/05:30pm 7.1 4.0 5.6 90 0.7 W 11 13 6 7 1018.6 1018.6 0.2
25/05:00pm 8.7 5.5 6.7 87 0.9 W 13 15 7 8 1018.5 1018.5 0.2
25/04:30pm 10.7 7.1 8.3 85 1.2 WSW 17 20 9 11 1018.2 1018.2 0.2
25/04:00pm 11.2 8.0 8.4 83 1.4 W 15 24 8 13 1018.2 1018.2 0.2
25/03:30pm 10.2 8.6 8.6 90 0.8 W 7 9 4 5 1018.3 1018.3 0.2
25/03:01pm 10.1 8.4 8.2 88 0.9 WSW 7 13 4 7 1018.2 1018.2 0.2
25/03:00pm 10.1 8.4 8.2 88 0.9 WSW 7 13 4 7 1018.2 1018.2 0.2
25/02:57pm 10.2 8.1 8.3 88 0.9 WSW 9 13 5 7 1018.3 1018.3 0.2
25/02:38pm 10.6 8.9 8.2 85 1.2 W 7 9 4 5 1018.4 1018.4 0.2
25/02:30pm 10.7 8.5 7.9 83 1.4 W 9 17 5 9 1018.4 1018.4 0.0
25/02:23pm 10.6 7.9 7.5 81 1.5 WNW 11 17 6 9 1018.4 1018.4 0.0
25/02:09pm 10.9 7.8 7.4 79 1.7 WNW 13 17 7 9 1018.4 1018.4 0.0
25/02:00pm 11.0 8.7 7.3 78 1.8 WNW 9 13 5 7 1018.5 1018.5 0.0
25/01:30pm 10.5 6.2 6.8 78 1.7 WSW 19 22 10 12 1018.7 1018.7 0.0
25/01:00pm 11.3 5.9 6.2 71 2.4 W 24 33 13 18 1018.7 1018.7 0.0
25/12:30pm 11.2 7.1 6.3 72 2.3 W 17 26 9 14 1018.8 1018.8 0.0
25/12:00pm 10.1 7.3 5.1 71 2.3 W 9 15 5 8 1019.1 1019.1 0.0
25/11:30am 9.7 6.0 4.7 71 2.2 WNW 13 17 7 9 1019.4 1019.4 0.0
25/11:00am 9.7 6.9 5.1 73 2.1 W 9 17 5 9 1019.6 1019.6 0.0
25/10:30am 8.4 5.5 4.6 77 1.7 WNW 9 13 5 7 1019.9 1019.9 0.0
25/10:00am 7.1 4.1 3.9 80 1.4 NW 9 11 5 6 1019.5 1019.5 0.0
25/09:30am 5.5 2.3 3.2 85 1.0 WNW 9 11 5 6 1019.0 1019.0 0.0
25/09:00am 3.9 0.6 2.4 90 0.6 WNW 9 11 5 6 1018.7 1018.7 0.0
25/08:30am 2.5 -2.2 1.2 91 0.5 WNW 15 19 8 10 1018.7 1018.7 0.0
25/08:00am 1.7 -3.4 0.5 92 0.4 WNW 17 19 9 10 1018.5 1018.5 0.0
25/07:30am 1.0 -1.0 -0.1 92 0.4 CALM 0 0 0 0 1018.1 1018.1 0.0
25/07:00am 1.9 -1.7 0.7 92 0.4 SW 9 15 5 8 1017.9 1017.9 0.0
25/06:30am 1.7 -3.8 0.5 92 0.4 W 19 20 10 11 1017.6 1017.6 0.0
25/06:00am 0.9 -3.6 -0.2 92 0.4 W 13 19 7 10 1017.5 1017.5 0.0
25/05:30am 1.7 -1.4 0.4 91 0.5 SW 6 9 3 5 1017.4 1017.4 0.0
25/05:00am 1.9 -2.8 0.6 91 0.5 WSW 15 19 8 10 1016.8 1016.9 0.0
25/04:30am 2.0 -2.7 0.7 91 0.5 WSW 15 20 8 11 1016.2 1016.3 0.0
25/04:00am 1.9 -3.8 0.6 91 0.5 WSW 20 24 11 13 1016.3 1016.4 0.0
25/03:30am 1.9 -1.4 0.4 90 0.6 SW 7 9 4 5 1016.0 1016.1 0.0
25/03:00am 2.3 -2.8 0.8 90 0.6 WSW 17 22 9 12 1015.9 1016.0 0.0
25/02:30am 2.1 -2.3 0.3 88 0.7 WSW 13 17 7 9 1015.7 1015.8 0.0
25/02:00am 3.1 -2.6 0.7 84 0.9 WSW 20 32 11 17 1015.2 1015.3 0.0
25/01:30am 3.6 -2.3 1.5 86 0.8 WSW 22 28 12 15 1015.1 1015.2 0.0
25/01:00am 3.2 -2.8 0.9 85 0.9 SW 22 28 12 15 1014.4 1014.5 0.0
25/12:30am 3.1 -3.4 0.2 81 1.1 WSW 24 28 13 15 1013.7 1013.8 0.0
25/12:00am 4.2 -3.4 0.7 78 1.3 WSW 30 35 16 19 1013.4 1013.5 0.0
 
Date/Time
EST
Temp
°C
App
Temp
°C
Dew
Point
Rel
Hum
%
Delta-T
°C
Wind Press
QNH
hPa
Press
MSL
hPa
Rain
since 9 am
mm
Dir
 
Spd
km/h
Gust
km/h
Spd
kts
Gust
kts
24/11:30pm 4.3 -3.6 1.0 79 1.3 WSW 32 39 17 21 1012.8 1012.9 0.0
24/11:00pm 4.4 -2.0 0.9 78 1.4 WSW 24 32 13 17 1012.4 1012.5 0.0
24/10:30pm 3.7 -1.7 1.1 83 1.0 WSW 19 28 10 15 1012.0 1012.1 0.0
24/10:00pm 1.8 -1.6 -0.4 85 0.8 WNW 7 13 4 7 1011.6 1011.7 0.0
24/09:30pm 3.2 -0.7 0.9 85 0.9 WNW 11 15 6 8 1011.0 1011.1 0.0
24/09:00pm 3.3 -2.1 1.0 85 0.9 WNW 19 22 10 12 1010.6 1010.7 0.0
24/08:30pm 3.0 -2.0 1.2 88 0.7 WNW 17 22 9 12 1010.3 1010.4 0.0
24/08:00pm 2.0 -1.7 0.2 88 0.7 WSW 9 13 5 7 1009.6 1009.7 0.0
24/07:30pm 3.2 -1.5 1.1 86 0.8 W 15 19 8 10 1008.9 1009.0 0.0
24/07:00pm 3.2 -1.1 1.1 86 0.8 WSW 13 20 7 11 1008.5 1008.6 0.0
24/06:30pm 3.1 -1.9 1.3 88 0.7 W 17 19 9 10 1007.7 1007.8 0.0
24/06:00pm 3.2 -1.8 1.4 88 0.7 W 17 19 9 10 1006.6 1006.7 0.0
24/05:30pm 4.1 -0.5 1.5 83 1.0 W 15 19 8 10 1006.0 1006.1 0.0
24/05:00pm 5.1 0.2 2.1 81 1.2 WSW 17 22 9 12 1005.4 1005.5 0.0
24/04:30pm 5.5 0.6 1.8 77 1.5 W 17 22 9 12 1004.8 1004.9 0.0
24/04:00pm 6.7 2.7 2.6 75 1.7 WSW 13 19 7 10 1004.1 1004.2 0.0
24/03:30pm 6.8 0.6 1.9 71 2.0 WSW 24 37 13 20 1003.4 1003.5 0.0
24/03:00pm 7.3 2.1 2.4 71 2.0 WSW 19 28 10 15 1002.5 1002.5 0.0
24/02:30pm 8.2 3.3 3.9 74 1.9 W 19 24 10 13 1001.9 1001.9 0.0
24/02:00pm 7.8 3.1 3.3 73 1.9 SW 17 22 9 12 1001.5 1001.5 0.0
24/01:30pm 6.9 3.2 4.2 83 1.2 W 13 17 7 9 1001.3 1001.3 0.0
24/01:00pm 6.8 3.0 3.9 82 1.2 W 13 19 7 10 1001.0 1001.0 0.0
24/12:30pm 6.4 1.8 3.7 83 1.1 WSW 17 20 9 11 1000.6 1000.6 0.0
24/12:00pm 6.5 1.2 3.1 79 1.4 SW 20 28 11 15 1000.4 1000.4 0.0
24/11:30am 6.0 -0.8 3.3 83 1.1 WSW 28 39 15 21 1000.7 1000.7 0.0
24/11:25am 5.9 -0.9 3.2 83 1.1 WSW 28 39 15 21 1000.6 1000.6 0.0
24/11:00am 6.3 2.0 5.3 93 0.4 WSW 17 20 9 11 1000.3 1000.3 0.0
24/10:30am 5.5 1.5 4.9 96 0.3 W 15 19 8 10 999.6 999.6 0.0
24/10:00am 4.4 1.4 4.0 97 0.2 WSW 9 9 5 5 999.0 999.0 0.0
24/09:30am 3.4 -0.2 3.0 97 0.2 W 11 13 6 7 998.8 998.8 0.0
24/09:00am 3.2 -0.4 2.8 97 0.2 WNW 11 13 6 7 998.3 998.3 15.2
24/08:30am 2.7 -0.7 2.1 96 0.2 WSW 9 9 5 5 997.7 997.7 15.2
24/08:00am 2.6 -1.5 2.0 96 0.2 WSW 13 15 7 8 997.4 997.4 15.2
24/07:30am 3.2 -0.5 2.6 96 0.2 NW 11 13 6 7 997.0 997.0 15.2
24/07:00am 3.5 0.3 3.1 97 0.2 WNW 9 11 5 6 996.8 996.8 15.2
24/06:30am 3.3 -0.7 2.9 97 0.2 WSW 13 15 7 8 996.5 996.5 15.2
24/06:00am 2.9 -0.8 2.5 97 0.2 W 11 13 6 7 996.2 996.2 15.0
24/05:30am 2.5 -0.5 2.1 97 0.2 W 7 9 4 5 995.8 995.8 15.0
24/05:00am 2.5 -1.2 2.1 97 0.2 WNW 11 13 6 7 995.8 995.8 15.0
24/04:30am 2.3 -1.1 1.9 97 0.2 WNW 9 11 5 6 995.7 995.7 15.0
24/04:00am 2.0 -1.1 1.4 96 0.2 W 7 9 4 5 995.5 995.5 15.0
24/03:30am 2.2 -0.9 1.6 96 0.2 WSW 7 9 4 5 995.8 995.8 15.0
24/03:16am 2.2 -1.6 1.8 97 0.2 WSW 11 15 6 8 995.8 995.8 15.0
24/03:00am 1.8 -2.5 1.2 96 0.2 WNW 13 17 7 9 995.8 995.8 15.0
24/02:30am 1.7 -0.9 1.1 96 0.2 W 4 7 2 4 995.3 995.3 15.0
24/02:20am 2.1 -1.0 1.5 96 0.2 WNW 7 9 4 5 995.3 995.3 15.0
24/02:01am 2.6 -0.2 2.0 96 0.2 WSW 6 13 3 7 995.1 995.1 15.0
24/02:00am 2.4 -0.1 1.8 96 0.2 WSW 4 13 2 7 995.1 995.1 15.0
24/01:44am 2.3 -0.6 1.7 96 0.2 S 6 7 3 4 995.0 995.0 15.0
24/01:30am 2.3 -0.7 1.7 96 0.2 WSW 7 7 4 4 995.1 995.1 15.0
24/01:00am 2.8 -0.2 2.1 95 0.3 WSW 7 11 4 6 995.3 995.3 15.0
24/12:30am 4.1 1.5 3.4 95 0.3 WSW 6 9 3 5 995.2 995.2 15.0
24/12:00am 3.3 0.4 2.6 95 0.3 WSW 7 9 4 5 995.4 995.4 14.6
 
Date/Time
EST
Temp
°C
App
Temp
°C
Dew
Point
Rel
Hum
%
Delta-T
°C
Wind Press
QNH
hPa
Press
MSL
hPa
Rain
since 9 am
mm
Dir
 
Spd
km/h
Gust
km/h
Spd
kts
Gust
kts
23/11:30pm 3.7 0.8 2.8 94 0.4 WSW 7 9 4 5 995.4 995.4 14.4
23/11:00pm 4.2 1.6 3.3 94 0.4 W 6 7 3 4 994.9 994.9 14.4
23/10:30pm 4.8 2.3 3.8 93 0.4 NW 6 7 3 4 995.0 995.0 14.4
23/10:12pm 5.1 3.4 4.1 93 0.4 SW 2 7 1 4 995.1 995.1 14.4
23/10:00pm 5.1 2.1 4.1 93 0.4 S 9 13 5 7 995.1 995.1 14.4
23/09:49pm 5.0 1.2 4.1 94 0.4 SSW 13 19 7 10 995.3 995.3 14.4
23/09:30pm 4.5 1.4 3.8 95 0.3 S 9 13 5 7 995.1 995.1 14.4
23/09:00pm 4.6 1.9 3.7 94 0.4 W 7 9 4 5 995.2 995.2 14.4
23/08:30pm 4.5 2.3 3.5 93 0.4 W 4 7 2 4 994.8 994.8 14.4
23/08:00pm 4.3 0.8 3.3 93 0.4 W 11 13 6 7 995.0 995.0 14.4
23/07:30pm 4.5 1.0 3.3 92 0.5 WNW 11 13 6 7 994.2 994.2 14.4
23/07:00pm 5.0 1.5 3.5 90 0.6 WNW 11 13 6 7 993.4 993.4 14.4
23/06:30pm 5.1 1.6 3.4 89 0.7 W 11 19 6 10 992.9 992.9 14.4
23/06:00pm 5.4 0.8 3.9 90 0.6 WNW 17 24 9 13 993.4 993.4 14.4
23/05:30pm 5.3 1.1 3.6 89 0.7 W 15 20 8 11 992.4 992.4 14.4
23/05:00pm 5.6 0.6 3.8 88 0.8 WSW 19 26 10 14 992.0 992.0 14.4
23/04:36pm 6.2 -0.3 4.7 90 0.6 WSW 28 44 15 24 992.1 992.1 14.0
23/04:30pm 6.2 1.5 5.0 92 0.5 W 19 24 10 13 991.9 991.9 13.6
23/04:00pm 6.5 3.3 5.1 91 0.6 WNW 11 13 6 7 990.8 990.8 12.6
23/03:41pm 6.6 3.0 5.2 91 0.6 WSW 13 20 7 11 990.8 990.8 12.2
23/03:30pm 6.9 2.1 5.4 90 0.7 WSW 20 32 11 17 990.8 990.8 11.6
23/03:28pm 6.8 1.6 5.3 90 0.7 WSW 22 32 12 17 990.7 990.7 11.6
23/03:00pm 7.7 3.2 6.3 91 0.6 WSW 19 28 10 15 990.4 990.4 9.6

Other Formats:

Comma delimited format used in spreadsheet applications
http://www.bom.gov.au/fwo/IDT60801/IDT60801.95957.axf

JavaScript Object Notation format (JSON) in row-major order
http://www.bom.gov.au/fwo/IDT60801/IDT60801.95957.json